sensor_id;sensor_type;location;lat;lon;timestamp;pressure;altitude;pressure_sealevel;temperature;humidity
39769;BME280;38939;47.824;14.642;2023-12-20T00:00:24;96935.56;;;1.69;85.91
39769;BME280;38939;47.824;14.642;2023-12-20T00:01:26;96938.38;;;1.75;86.21
39769;BME280;38939;47.824;14.642;2023-12-20T00:02:28;96931.75;;;1.73;86.32
39769;BME280;38939;47.824;14.642;2023-12-20T00:03:30;96936.09;;;1.72;85.85
39769;BME280;38939;47.824;14.642;2023-12-20T00:04:43;96936.91;;;1.73;86.46
39769;BME280;38939;47.824;14.642;2023-12-20T00:05:45;96935.31;;;1.72;85.47
39769;BME280;38939;47.824;14.642;2023-12-20T00:06:47;96931.91;;;1.71;85.51
39769;BME280;38939;47.824;14.642;2023-12-20T00:07:49;96936.38;;;1.69;85.53
39769;BME280;38939;47.824;14.642;2023-12-20T00:08:51;96932.91;;;1.60;85.88
39769;BME280;38939;47.824;14.642;2023-12-20T00:09:53;96933.59;;;1.63;86.42
39769;BME280;38939;47.824;14.642;2023-12-20T00:10:55;96928.31;;;1.64;86.14
39769;BME280;38939;47.824;14.642;2023-12-20T00:11:57;96929.63;;;1.68;86.29
39769;BME280;38939;47.824;14.642;2023-12-20T00:12:59;96923.53;;;1.69;86.06
39769;BME280;38939;47.824;14.642;2023-12-20T00:14:00;96917.88;;;1.66;86.02
39769;BME280;38939;47.824;14.642;2023-12-20T00:15:02;96924.75;;;1.65;86.24
39769;BME280;38939;47.824;14.642;2023-12-20T00:16:04;96931.53;;;1.66;85.49
39769;BME280;38939;47.824;14.642;2023-12-20T00:17:06;96929.50;;;1.70;86.50
39769;BME280;38939;47.824;14.642;2023-12-20T00:18:09;96929.31;;;1.71;85.46
39769;BME280;38939;47.824;14.642;2023-12-20T00:19:11;96925.69;;;1.74;85.38
39769;BME280;38939;47.824;14.642;2023-12-20T00:20:13;96926.34;;;1.76;86.11
39769;BME280;38939;47.824;14.642;2023-12-20T00:21:15;96918.47;;;1.77;85.19
39769;BME280;38939;47.824;14.642;2023-12-20T00:22:16;96927.16;;;1.76;85.16
39769;BME280;38939;47.824;14.642;2023-12-20T00:23:18;96922.78;;;1.77;85.13
39769;BME280;38939;47.824;14.642;2023-12-20T00:24:20;96924.56;;;1.76;85.18
39769;BME280;38939;47.824;14.642;2023-12-20T00:25:22;96923.78;;;1.76;85.29
39769;BME280;38939;47.824;14.642;2023-12-20T00:26:24;96921.03;;;1.77;85.67
39769;BME280;38939;47.824;14.642;2023-12-20T00:27:26;96928.75;;;1.77;85.38
39769;BME280;38939;47.824;14.642;2023-12-20T00:28:27;96926.03;;;1.79;85.45
39769;BME280;38939;47.824;14.642;2023-12-20T00:29:29;96930.38;;;1.78;85.61
39769;BME280;38939;47.824;14.642;2023-12-20T00:30:31;96925.22;;;1.78;84.83
39769;BME280;38939;47.824;14.642;2023-12-20T00:31:33;96931.97;;;1.79;84.78
39769;BME280;38939;47.824;14.642;2023-12-20T00:32:35;96929.28;;;1.81;84.95
39769;BME280;38939;47.824;14.642;2023-12-20T00:33:37;96929.28;;;1.81;84.66
39769;BME280;38939;47.824;14.642;2023-12-20T00:34:42;96935.22;;;1.82;85.45
39769;BME280;38939;47.824;14.642;2023-12-20T00:35:43;96931.97;;;1.79;84.74
39769;BME280;38939;47.824;14.642;2023-12-20T00:36:45;96929.06;;;1.74;84.40
39769;BME280;38939;47.824;14.642;2023-12-20T00:37:47;96925.28;;;1.69;84.46
39769;BME280;38939;47.824;14.642;2023-12-20T00:38:49;96923.16;;;1.64;85.17
39769;BME280;38939;47.824;14.642;2023-12-20T00:39:51;96922.78;;;1.59;84.06
39769;BME280;38939;47.824;14.642;2023-12-20T00:40:54;96918.88;;;1.55;84.46
39769;BME280;38939;47.824;14.642;2023-12-20T00:41:55;96924.16;;;1.53;84.73
39769;BME280;38939;47.824;14.642;2023-12-20T00:42:57;96921.59;;;1.53;84.85
39769;BME280;38939;47.824;14.642;2023-12-20T00:43:59;96921.34;;;1.47;84.53
39769;BME280;38939;47.824;14.642;2023-12-20T00:45:01;96923.94;;;1.47;84.97
39769;BME280;38939;47.824;14.642;2023-12-20T00:46:04;96921.81;;;1.42;85.05
39769;BME280;38939;47.824;14.642;2023-12-20T00:47:05;96917.59;;;1.41;85.86
39769;BME280;38939;47.824;14.642;2023-12-20T00:48:07;96921.50;;;1.45;85.78
39769;BME280;38939;47.824;14.642;2023-12-20T00:49:09;96915.56;;;1.45;85.89
39769;BME280;38939;47.824;14.642;2023-12-20T00:50:12;96917.19;;;1.46;85.16
39769;BME280;38939;47.824;14.642;2023-12-20T00:51:14;96922.81;;;1.49;85.14
39769;BME280;38939;47.824;14.642;2023-12-20T00:52:16;96912.13;;;1.54;85.65
39769;BME280;38939;47.824;14.642;2023-12-20T00:53:19;96916.44;;;1.53;85.98
39769;BME280;38939;47.824;14.642;2023-12-20T00:54:21;96921.31;;;1.56;84.96
39769;BME280;38939;47.824;14.642;2023-12-20T00:55:22;96923.50;;;1.51;84.83
39769;BME280;38939;47.824;14.642;2023-12-20T00:56:24;96923.50;;;1.51;85.20
39769;BME280;38939;47.824;14.642;2023-12-20T00:57:26;96916.59;;;1.52;85.88
39769;BME280;38939;47.824;14.642;2023-12-20T00:58:28;96923.34;;;1.53;85.46
39769;BME280;38939;47.824;14.642;2023-12-20T00:59:30;96921.31;;;1.56;85.03
39769;BME280;38939;47.824;14.642;2023-12-20T01:00:32;96916.78;;;1.40;85.65
39769;BME280;38939;47.824;14.642;2023-12-20T01:01:34;96921.75;;;1.24;84.90
39769;BME280;38939;47.824;14.642;2023-12-20T01:02:36;96922.59;;;1.15;86.05
39769;BME280;38939;47.824;14.642;2023-12-20T01:03:37;96913.72;;;1.09;86.23
39769;BME280;38939;47.824;14.642;2023-12-20T01:04:40;96912.09;;;1.08;85.99
39769;BME280;38939;47.824;14.642;2023-12-20T01:05:41;96914.38;;;1.11;86.24
39769;BME280;38939;47.824;14.642;2023-12-20T01:06:44;96901.81;;;1.08;87.30
39769;BME280;38939;47.824;14.642;2023-12-20T01:07:46;96898.97;;;1.11;87.57
39769;BME280;38939;47.824;14.642;2023-12-20T01:08:48;96903.00;;;1.14;86.96
39769;BME280;38939;47.824;14.642;2023-12-20T01:09:50;96903.13;;;1.12;86.69
39769;BME280;38939;47.824;14.642;2023-12-20T01:10:51;96902.91;;;1.06;86.90
39769;BME280;38939;47.824;14.642;2023-12-20T01:11:53;96889.41;;;1.04;87.77
39769;BME280;38939;47.824;14.642;2023-12-20T01:12:55;96893.16;;;1.09;87.30
39769;BME280;38939;47.824;14.642;2023-12-20T01:13:57;96892.59;;;1.15;87.27
39769;BME280;38939;47.824;14.642;2023-12-20T01:14:59;96892.44;;;1.17;87.07
39769;BME280;38939;47.824;14.642;2023-12-20T01:16:01;96889.94;;;1.07;87.08
39769;BME280;38939;47.824;14.642;2023-12-20T01:17:03;96884.97;;;0.96;86.49
39769;BME280;38939;47.824;14.642;2023-12-20T01:18:05;96888.19;;;0.98;87.29
39769;BME280;38939;47.824;14.642;2023-12-20T01:19:07;96894.97;;;0.99;86.38
39769;BME280;38939;47.824;14.642;2023-12-20T01:20:09;96892.53;;;0.97;87.40
39769;BME280;38939;47.824;14.642;2023-12-20T01:21:11;96897.00;;;0.95;86.81
39769;BME280;38939;47.824;14.642;2023-12-20T01:22:13;96891.88;;;0.95;87.11
39769;BME280;38939;47.824;14.642;2023-12-20T01:23:15;96888.75;;;0.92;87.70
39769;BME280;38939;47.824;14.642;2023-12-20T01:24:17;96887.00;;;0.92;87.12
39769;BME280;38939;47.824;14.642;2023-12-20T01:25:19;96883.06;;;0.98;87.91
39769;BME280;38939;47.824;14.642;2023-12-20T01:26:21;96878.31;;;1.03;87.49
39769;BME280;38939;47.824;14.642;2023-12-20T01:27:23;96878.31;;;1.03;87.29
39769;BME280;38939;47.824;14.642;2023-12-20T01:28:26;96883.19;;;0.96;86.52
39769;BME280;38939;47.824;14.642;2023-12-20T01:29:28;96887.47;;;0.78;87.48
39769;BME280;38939;47.824;14.642;2023-12-20T01:30:30;96886.00;;;0.75;87.94
39769;BME280;38939;47.824;14.642;2023-12-20T01:31:32;96889.09;;;0.79;87.76
39769;BME280;38939;47.824;14.642;2023-12-20T01:32:34;96892.69;;;0.86;87.42
39769;BME280;38939;47.824;14.642;2023-12-20T01:33:35;96894.03;;;0.90;87.90
39769;BME280;38939;47.824;14.642;2023-12-20T01:34:37;96882.44;;;0.86;87.39
39769;BME280;38939;47.824;14.642;2023-12-20T01:35:39;96879.84;;;0.86;88.14
39769;BME280;38939;47.824;14.642;2023-12-20T01:36:42;96884.56;;;0.91;87.89
39769;BME280;38939;47.824;14.642;2023-12-20T01:37:44;96877.53;;;0.93;87.99
39769;BME280;38939;47.824;14.642;2023-12-20T01:38:46;96876.44;;;0.95;87.93
39769;BME280;38939;47.824;14.642;2023-12-20T01:39:48;96872.69;;;0.90;86.86
39769;BME280;38939;47.824;14.642;2023-12-20T01:40:50;96878.91;;;0.87;87.46
39769;BME280;38939;47.824;14.642;2023-12-20T01:41:52;96882.47;;;0.76;87.19
39769;BME280;38939;47.824;14.642;2023-12-20T01:42:58;96877.78;;;0.62;87.29
39769;BME280;38939;47.824;14.642;2023-12-20T01:44:00;96876.84;;;0.63;87.53
39769;BME280;38939;47.824;14.642;2023-12-20T01:45:01;96873.72;;;0.69;87.87
39769;BME280;38939;47.824;14.642;2023-12-20T01:46:04;96874.91;;;0.75;87.63
39769;BME280;38939;47.824;14.642;2023-12-20T01:47:07;96869.47;;;0.78;87.52
39769;BME280;38939;47.824;14.642;2023-12-20T01:48:10;96873.38;;;0.82;88.23
39769;BME280;38939;47.824;14.642;2023-12-20T01:49:13;96875.81;;;0.84;87.91
39769;BME280;38939;47.824;14.642;2023-12-20T01:50:16;96862.84;;;0.85;87.85
39769;BME280;38939;47.824;14.642;2023-12-20T01:51:18;96869.22;;;0.81;87.15
39769;BME280;38939;47.824;14.642;2023-12-20T01:52:20;96867.44;;;0.82;88.01
39769;BME280;38939;47.824;14.642;2023-12-20T01:53:23;96872.44;;;0.83;87.33
39769;BME280;38939;47.824;14.642;2023-12-20T01:54:26;96861.88;;;0.86;87.75
39769;BME280;38939;47.824;14.642;2023-12-20T01:55:29;96848.59;;;0.91;87.37
39769;BME280;38939;47.824;14.642;2023-12-20T01:56:33;96854.41;;;0.93;87.69
39769;BME280;38939;47.824;14.642;2023-12-20T01:57:37;96861.06;;;0.86;86.55
39769;BME280;38939;47.824;14.642;2023-12-20T01:58:40;96852.97;;;0.80;86.60
39769;BME280;38939;47.824;14.642;2023-12-20T01:59:44;96863.97;;;0.73;87.11
39769;BME280;38939;47.824;14.642;2023-12-20T02:00:46;96860.88;;;0.69;87.64
39769;BME280;38939;47.824;14.642;2023-12-20T02:01:49;96851.28;;;0.71;87.63
39769;BME280;38939;47.824;14.642;2023-12-20T02:02:52;96858.69;;;0.74;87.78
39769;BME280;38939;47.824;14.642;2023-12-20T02:03:55;96854.06;;;0.78;87.51
39769;BME280;38939;47.824;14.642;2023-12-20T02:04:58;96852.19;;;0.80;87.73
39769;BME280;38939;47.824;14.642;2023-12-20T02:06:00;96853.66;;;0.83;87.30
39769;BME280;38939;47.824;14.642;2023-12-20T02:07:02;96856.75;;;0.86;87.15
39769;BME280;38939;47.824;14.642;2023-12-20T02:08:05;96848.09;;;0.87;86.75
39769;BME280;38939;47.824;14.642;2023-12-20T02:09:07;96844.38;;;0.72;86.78
39769;BME280;38939;47.824;14.642;2023-12-20T02:10:09;96835.34;;;0.68;87.85
39769;BME280;38939;47.824;14.642;2023-12-20T02:11:11;96841.97;;;0.60;87.18
39769;BME280;38939;47.824;14.642;2023-12-20T02:12:13;96838.06;;;0.56;87.40
39769;BME280;38939;47.824;14.642;2023-12-20T02:13:15;96842.69;;;0.53;87.99
39769;BME280;38939;47.824;14.642;2023-12-20T02:14:17;96839.16;;;0.54;88.17
39769;BME280;38939;47.824;14.642;2023-12-20T02:15:19;96840.63;;;0.56;88.08
39769;BME280;38939;47.824;14.642;2023-12-20T02:16:21;96837.13;;;0.57;88.06
39769;BME280;38939;47.824;14.642;2023-12-20T02:17:24;96828.19;;;0.62;88.26
39769;BME280;38939;47.824;14.642;2023-12-20T02:18:27;96836.44;;;0.65;88.12
39769;BME280;38939;47.824;14.642;2023-12-20T02:19:29;96832.22;;;0.64;87.98
39769;BME280;38939;47.824;14.642;2023-12-20T02:20:31;96822.75;;;0.65;87.95
39769;BME280;38939;47.824;14.642;2023-12-20T02:21:33;96826.72;;;0.59;88.13
39769;BME280;38939;47.824;14.642;2023-12-20T02:22:36;96823.09;;;0.52;88.73
39769;BME280;38939;47.824;14.642;2023-12-20T02:23:38;96833.78;;;0.47;88.32
39769;BME280;38939;47.824;14.642;2023-12-20T02:24:40;96822.06;;;0.35;89.26
39769;BME280;38939;47.824;14.642;2023-12-20T02:25:42;96815.97;;;0.36;89.31
39769;BME280;38939;47.824;14.642;2023-12-20T02:26:43;96825.31;;;0.37;89.29
39769;BME280;38939;47.824;14.642;2023-12-20T02:27:48;96817.22;;;0.32;89.19
39769;BME280;38939;47.824;14.642;2023-12-20T02:28:50;96818.56;;;0.36;89.56
39769;BME280;38939;47.824;14.642;2023-12-20T02:29:52;96822.75;;;0.37;89.77
39769;BME280;38939;47.824;14.642;2023-12-20T02:30:54;96814.09;;;0.38;89.49
39769;BME280;38939;47.824;14.642;2023-12-20T02:31:56;96808.03;;;0.39;89.17
39769;BME280;38939;47.824;14.642;2023-12-20T02:32:59;96803.69;;;0.39;89.62
39769;BME280;38939;47.824;14.642;2023-12-20T02:34:01;96810.84;;;0.36;89.96
39769;BME280;38939;47.824;14.642;2023-12-20T02:35:03;96803.72;;;0.30;89.27
39769;BME280;38939;47.824;14.642;2023-12-20T02:36:06;96800.34;;;0.29;89.89
39769;BME280;38939;47.824;14.642;2023-12-20T02:37:08;96791.56;;;0.32;89.70
39769;BME280;38939;47.824;14.642;2023-12-20T02:38:10;96784.16;;;0.29;89.32
39769;BME280;38939;47.824;14.642;2023-12-20T02:39:12;96779.38;;;0.34;89.62
39769;BME280;38939;47.824;14.642;2023-12-20T02:40:14;96783.06;;;0.31;89.43
39769;BME280;38939;47.824;14.642;2023-12-20T02:41:16;96793.44;;;0.30;90.19
39769;BME280;38939;47.824;14.642;2023-12-20T02:42:19;96791.44;;;0.24;89.82
39769;BME280;38939;47.824;14.642;2023-12-20T02:43:21;96786.88;;;0.17;89.44
39769;BME280;38939;47.824;14.642;2023-12-20T02:44:23;96785.28;;;0.16;90.19
39769;BME280;38939;47.824;14.642;2023-12-20T02:45:26;96779.97;;;0.18;90.07
39769;BME280;38939;47.824;14.642;2023-12-20T02:46:28;96778.75;;;0.22;89.91
39769;BME280;38939;47.824;14.642;2023-12-20T02:47:30;96773.78;;;0.21;90.32
39769;BME280;38939;47.824;14.642;2023-12-20T02:48:32;96766.88;;;0.21;90.69
39769;BME280;38939;47.824;14.642;2023-12-20T02:49:34;96767.03;;;0.19;90.42
39769;BME280;38939;47.824;14.642;2023-12-20T02:50:36;96751.38;;;0.13;90.54
39769;BME280;38939;47.824;14.642;2023-12-20T02:51:38;96758.28;;;0.12;90.90
39769;BME280;38939;47.824;14.642;2023-12-20T02:52:40;96741.81;;;0.05;90.25
39769;BME280;38939;47.824;14.642;2023-12-20T02:53:42;96740.75;;;-0.02;90.45
39769;BME280;38939;47.824;14.642;2023-12-20T02:54:44;96742.50;;;-0.03;91.06
39769;BME280;38939;47.824;14.642;2023-12-20T02:55:46;96738.47;;;-0.05;91.53
39769;BME280;38939;47.824;14.642;2023-12-20T02:56:48;96737.25;;;-0.01;91.61
39769;BME280;38939;47.824;14.642;2023-12-20T02:57:49;96733.19;;;0.06;91.50
39769;BME280;38939;47.824;14.642;2023-12-20T02:58:51;96725.88;;;0.11;92.07
39769;BME280;38939;47.824;14.642;2023-12-20T02:59:53;96728.97;;;0.15;91.93
39769;BME280;38939;47.824;14.642;2023-12-20T03:00:55;96725.97;;;0.19;90.87
39769;BME280;38939;47.824;14.642;2023-12-20T03:01:57;96719.47;;;0.25;91.30
39769;BME280;38939;47.824;14.642;2023-12-20T03:02:59;96712.97;;;0.31;90.58
39769;BME280;38939;47.824;14.642;2023-12-20T03:04:01;96710.53;;;0.29;90.26
39769;BME280;38939;47.824;14.642;2023-12-20T03:05:03;96710.81;;;0.26;91.20
39769;BME280;38939;47.824;14.642;2023-12-20T03:06:05;96709.47;;;0.22;90.60
39769;BME280;38939;47.824;14.642;2023-12-20T03:07:07;96711.13;;;0.23;90.19
39769;BME280;38939;47.824;14.642;2023-12-20T03:08:09;96704.59;;;0.29;90.32
39769;BME280;38939;47.824;14.642;2023-12-20T03:09:12;96707.28;;;0.37;91.09
39769;BME280;38939;47.824;14.642;2023-12-20T03:10:14;96699.13;;;0.42;90.23
39769;BME280;38939;47.824;14.642;2023-12-20T03:11:27;96700.47;;;0.46;90.06
39769;BME280;38939;47.824;14.642;2023-12-20T03:12:29;96698.69;;;0.46;89.68
39769;BME280;38939;47.824;14.642;2023-12-20T03:13:31;96706.13;;;0.49;89.53
39769;BME280;38939;47.824;14.642;2023-12-20T03:14:33;96705.47;;;0.47;89.67
39769;BME280;38939;47.824;14.642;2023-12-20T03:15:35;96706.13;;;0.49;89.46
39769;BME280;38939;47.824;14.642;2023-12-20T03:16:37;96700.59;;;0.44;89.49
39769;BME280;38939;47.824;14.642;2023-12-20T03:17:39;96710.63;;;0.37;89.59
39769;BME280;38939;47.824;14.642;2023-12-20T03:18:41;96707.19;;;0.29;90.13
39769;BME280;38939;47.824;14.642;2023-12-20T03:19:43;96701.66;;;0.24;89.83
39769;BME280;38939;47.824;14.642;2023-12-20T03:20:45;96704.50;;;0.21;90.17
39769;BME280;38939;47.824;14.642;2023-12-20T03:21:49;96707.09;;;0.21;90.78
39769;BME280;38939;47.824;14.642;2023-12-20T03:22:51;96705.19;;;0.23;90.63
39769;BME280;38939;47.824;14.642;2023-12-20T03:23:52;96714.22;;;0.27;90.89
39769;BME280;38939;47.824;14.642;2023-12-20T03:24:54;96714.88;;;0.29;90.34
39769;BME280;38939;47.824;14.642;2023-12-20T03:25:56;96711.34;;;0.30;90.51
39769;BME280;38939;47.824;14.642;2023-12-20T03:26:58;96714.97;;;0.37;91.11
39769;BME280;38939;47.824;14.642;2023-12-20T03:28:00;96713.72;;;0.41;90.98
39769;BME280;38939;47.824;14.642;2023-12-20T03:29:02;96706.97;;;0.40;90.73
39769;BME280;38939;47.824;14.642;2023-12-20T03:30:04;96701.34;;;0.36;90.23
39769;BME280;38939;47.824;14.642;2023-12-20T03:31:06;96694.72;;;0.34;90.15
39769;BME280;38939;47.824;14.642;2023-12-20T03:32:08;96702.41;;;0.34;90.76
39769;BME280;38939;47.824;14.642;2023-12-20T03:33:10;96694.03;;;0.32;90.09
39769;BME280;38939;47.824;14.642;2023-12-20T03:34:12;96703.25;;;0.34;90.52
39769;BME280;38939;47.824;14.642;2023-12-20T03:35:14;96696.03;;;0.38;90.15
39769;BME280;38939;47.824;14.642;2023-12-20T03:36:16;96698.03;;;0.44;90.79
39769;BME280;38939;47.824;14.642;2023-12-20T03:37:18;96699.34;;;0.48;89.88
39769;BME280;38939;47.824;14.642;2023-12-20T03:38:20;96692.63;;;0.47;90.29
39769;BME280;38939;47.824;14.642;2023-12-20T03:39:22;96689.75;;;0.50;90.46
39769;BME280;38939;47.824;14.642;2023-12-20T03:40:24;96686.25;;;0.51;89.79
39769;BME280;38939;47.824;14.642;2023-12-20T03:41:26;96678.69;;;0.50;89.48
39769;BME280;38939;47.824;14.642;2023-12-20T03:42:28;96688.81;;;0.51;90.12
39769;BME280;38939;47.824;14.642;2023-12-20T03:43:29;96690.00;;;0.57;89.72
39769;BME280;38939;47.824;14.642;2023-12-20T03:44:31;96688.78;;;0.61;89.43
39769;BME280;38939;47.824;14.642;2023-12-20T03:45:33;96691.84;;;0.65;89.40
39769;BME280;38939;47.824;14.642;2023-12-20T03:46:35;96684.66;;;0.68;89.69
39769;BME280;38939;47.824;14.642;2023-12-20T03:47:37;96685.97;;;0.72;89.88
39769;BME280;38939;47.824;14.642;2023-12-20T03:48:39;96691.56;;;0.68;89.28
39769;BME280;38939;47.824;14.642;2023-12-20T03:49:41;96681.56;;;0.65;89.69
39769;BME280;38939;47.824;14.642;2023-12-20T03:50:43;96682.53;;;0.64;89.61
39769;BME280;38939;47.824;14.642;2023-12-20T03:51:45;96679.00;;;0.65;89.30
39769;BME280;38939;47.824;14.642;2023-12-20T03:52:47;96671.97;;;0.67;89.50
39769;BME280;38939;47.824;14.642;2023-12-20T03:53:49;96685.97;;;0.72;89.13
39769;BME280;38939;47.824;14.642;2023-12-20T03:54:50;96680.84;;;0.72;89.22
39769;BME280;38939;47.824;14.642;2023-12-20T03:55:52;96672.72;;;0.77;89.46
39769;BME280;38939;47.824;14.642;2023-12-20T03:56:54;96680.13;;;0.80;89.39
39769;BME280;38939;47.824;14.642;2023-12-20T03:57:56;96679.97;;;0.82;88.69
39769;BME280;38939;47.824;14.642;2023-12-20T03:58:58;96676.31;;;0.84;89.24
39769;BME280;38939;47.824;14.642;2023-12-20T04:00:00;96668.47;;;0.86;88.97
39769;BME280;38939;47.824;14.642;2023-12-20T04:01:02;96673.28;;;0.89;88.21
39769;BME280;38939;47.824;14.642;2023-12-20T04:02:04;96677.34;;;0.91;88.47
39769;BME280;38939;47.824;14.642;2023-12-20T04:03:06;96681.50;;;0.92;88.69
39769;BME280;38939;47.824;14.642;2023-12-20T04:04:08;96682.19;;;0.94;88.35
39769;BME280;38939;47.824;14.642;2023-12-20T04:05:10;96675.13;;;0.96;88.03
39769;BME280;38939;47.824;14.642;2023-12-20T04:06:17;96676.63;;;0.99;88.45
39769;BME280;38939;47.824;14.642;2023-12-20T04:07:19;96682.69;;;0.98;88.37
39769;BME280;38939;47.824;14.642;2023-12-20T04:08:21;96678.50;;;0.97;88.40
39769;BME280;38939;47.824;14.642;2023-12-20T04:09:22;96673.53;;;0.95;87.28
39769;BME280;38939;47.824;14.642;2023-12-20T04:10:24;96683.16;;;0.93;87.35
39769;BME280;38939;47.824;14.642;2023-12-20T04:11:26;96684.75;;;0.94;87.36
39769;BME280;38939;47.824;14.642;2023-12-20T04:12:28;96690.84;;;0.93;87.44
39769;BME280;38939;47.824;14.642;2023-12-20T04:13:30;96684.09;;;0.92;87.89
39769;BME280;38939;47.824;14.642;2023-12-20T04:14:32;96688.28;;;0.93;87.40
39769;BME280;38939;47.824;14.642;2023-12-20T04:15:33;96686.38;;;0.95;87.88
39769;BME280;38939;47.824;14.642;2023-12-20T04:16:36;96695.81;;;0.95;87.61
39769;BME280;38939;47.824;14.642;2023-12-20T04:17:38;96707.72;;;0.96;86.96
39769;BME280;38939;47.824;14.642;2023-12-20T04:18:40;96703.38;;;0.96;87.04
39769;BME280;38939;47.824;14.642;2023-12-20T04:19:42;96693.09;;;0.96;87.83
39769;BME280;38939;47.824;14.642;2023-12-20T04:20:44;96710.94;;;0.98;86.99
39769;BME280;38939;47.824;14.642;2023-12-20T04:21:46;96717.56;;;1.00;88.04
39769;BME280;38939;47.824;14.642;2023-12-20T04:22:48;96707.28;;;1.00;87.83
39769;BME280;38939;47.824;14.642;2023-12-20T04:23:50;96704.56;;;1.02;87.24
39769;BME280;38939;47.824;14.642;2023-12-20T04:24:52;96709.44;;;1.05;87.69
39769;BME280;38939;47.824;14.642;2023-12-20T04:25:54;96709.25;;;1.07;87.87
39769;BME280;38939;47.824;14.642;2023-12-20T04:26:56;96709.78;;;1.10;86.76
39769;BME280;38939;47.824;14.642;2023-12-20T04:27:58;96707.22;;;1.10;87.22
39769;BME280;38939;47.824;14.642;2023-12-20T04:29:00;96715.72;;;1.11;87.28
39769;BME280;38939;47.824;14.642;2023-12-20T04:30:01;96700.31;;;1.11;87.50
39769;BME280;38939;47.824;14.642;2023-12-20T04:31:04;96699.34;;;1.12;87.26
39769;BME280;38939;47.824;14.642;2023-12-20T04:32:06;96698.50;;;1.03;87.45
39769;BME280;38939;47.824;14.642;2023-12-20T04:33:08;96700.47;;;0.91;87.46
39769;BME280;38939;47.824;14.642;2023-12-20T04:34:10;96691.94;;;0.91;86.98
39769;BME280;38939;47.824;14.642;2023-12-20T04:35:12;96692.38;;;0.86;87.64
39769;BME280;38939;47.824;14.642;2023-12-20T04:36:14;96687.09;;;0.88;87.50
39769;BME280;38939;47.824;14.642;2023-12-20T04:37:16;96695.31;;;0.91;87.15
39769;BME280;38939;47.824;14.642;2023-12-20T04:38:18;96690.78;;;0.85;86.91
39769;BME280;38939;47.824;14.642;2023-12-20T04:39:19;96688.34;;;0.84;87.96
39769;BME280;38939;47.824;14.642;2023-12-20T04:40:21;96689.16;;;0.84;87.34
39769;BME280;38939;47.824;14.642;2023-12-20T04:41:23;96691.06;;;0.82;87.53
39769;BME280;38939;47.824;14.642;2023-12-20T04:42:25;96695.91;;;0.85;87.18
39769;BME280;38939;47.824;14.642;2023-12-20T04:43:27;96694.41;;;0.83;87.45
39769;BME280;38939;47.824;14.642;2023-12-20T04:44:29;96697.50;;;0.86;87.95
39769;BME280;38939;47.824;14.642;2023-12-20T04:45:31;96699.13;;;0.87;87.01
39769;BME280;38939;47.824;14.642;2023-12-20T04:46:33;96693.69;;;0.90;87.10
39769;BME280;38939;47.824;14.642;2023-12-20T04:47:35;96686.31;;;0.87;86.75
39769;BME280;38939;47.824;14.642;2023-12-20T04:48:37;96684.97;;;0.83;87.20
39769;BME280;38939;47.824;14.642;2023-12-20T04:49:39;96683.94;;;0.76;87.06
39769;BME280;38939;47.824;14.642;2023-12-20T04:50:41;96689.00;;;0.68;87.00
39769;BME280;38939;47.824;14.642;2023-12-20T04:51:43;96681.16;;;0.69;87.64
39769;BME280;38939;47.824;14.642;2023-12-20T04:52:45;96685.84;;;0.74;88.23
39769;BME280;38939;47.824;14.642;2023-12-20T04:53:47;96685.56;;;0.77;88.26
39769;BME280;38939;47.824;14.642;2023-12-20T04:54:49;96689.44;;;0.81;88.29
39769;BME280;38939;47.824;14.642;2023-12-20T04:55:51;96692.50;;;0.85;87.57
39769;BME280;38939;47.824;14.642;2023-12-20T04:56:52;96691.56;;;0.86;88.33
39769;BME280;38939;47.824;14.642;2023-12-20T04:57:55;96686.13;;;0.89;88.17
39769;BME280;38939;47.824;14.642;2023-12-20T04:58:58;96682.63;;;0.90;87.15
39769;BME280;38939;47.824;14.642;2023-12-20T05:00:00;96687.63;;;0.91;87.95
39769;BME280;38939;47.824;14.642;2023-12-20T05:01:02;96693.41;;;0.93;87.82
39769;BME280;38939;47.824;14.642;2023-12-20T05:02:04;96684.88;;;0.93;86.75
39769;BME280;38939;47.824;14.642;2023-12-20T05:03:06;96688.88;;;0.87;87.42
39769;BME280;38939;47.824;14.642;2023-12-20T05:04:08;96686.38;;;0.77;86.85
39769;BME280;38939;47.824;14.642;2023-12-20T05:05:10;96696.09;;;0.74;87.08
39769;BME280;38939;47.824;14.642;2023-12-20T05:06:12;96690.44;;;0.70;86.56
39769;BME280;38939;47.824;14.642;2023-12-20T05:07:14;96700.06;;;0.68;87.57
39769;BME280;38939;47.824;14.642;2023-12-20T05:08:16;96699.13;;;0.69;87.58
39769;BME280;38939;47.824;14.642;2023-12-20T05:09:18;96697.13;;;0.63;87.65
39769;BME280;38939;47.824;14.642;2023-12-20T05:10:20;96707.75;;;0.68;87.19
39769;BME280;38939;47.824;14.642;2023-12-20T05:11:22;96718.94;;;0.77;88.22
39769;BME280;38939;47.824;14.642;2023-12-20T05:12:24;96719.44;;;0.80;87.20
39769;BME280;38939;47.824;14.642;2023-12-20T05:13:25;96713.22;;;0.83;87.10
39769;BME280;38939;47.824;14.642;2023-12-20T05:14:42;96718.19;;;0.85;87.68
39769;BME280;38939;47.824;14.642;2023-12-20T05:15:44;96711.97;;;0.87;87.90
39769;BME280;38939;47.824;14.642;2023-12-20T05:16:46;96716.59;;;0.84;87.55
39769;BME280;38939;47.824;14.642;2023-12-20T05:17:47;96708.09;;;0.83;87.68
39769;BME280;38939;47.824;14.642;2023-12-20T05:18:50;96710.94;;;0.80;87.54
39769;BME280;38939;47.824;14.642;2023-12-20T05:19:54;96721.72;;;0.84;87.57
39769;BME280;38939;47.824;14.642;2023-12-20T05:20:55;96732.81;;;0.84;87.12
39769;BME280;38939;47.824;14.642;2023-12-20T05:22:00;96728.38;;;0.76;86.80
39769;BME280;38939;47.824;14.642;2023-12-20T05:23:02;96725.16;;;0.74;86.97
39769;BME280;38939;47.824;14.642;2023-12-20T05:24:04;96731.78;;;0.77;87.28
39769;BME280;38939;47.824;14.642;2023-12-20T05:25:06;96732.06;;;0.74;87.01
39769;BME280;38939;47.824;14.642;2023-12-20T05:26:08;96733.81;;;0.73;86.96
39769;BME280;38939;47.824;14.642;2023-12-20T05:27:10;96743.00;;;0.76;86.78
39769;BME280;38939;47.824;14.642;2023-12-20T05:28:12;96732.44;;;0.79;86.94
39769;BME280;38939;47.824;14.642;2023-12-20T05:29:14;96727.00;;;0.82;87.10